Time;durP1;ratioP1;P1;durP2;ratioP2;P2;SDS_P1;SDS_P2;PMS_P1;PMS_P2;Temp;Humidity;BMP_temperature;BMP_pressure;BME280_temperature;BME280_humidity;BME280_pressure;Samples;Min_cycle;Max_cycle;Signal;HPM_P1;HPM_P2
2022/06/22 00:01:23;;;;;;;20.23;11.48;;;16.00;99.90;;;;;;5070872;28;20361;-76
2022/06/22 00:03:54;;;;;;;19.90;12.63;;;16.00;99.90;;;;;;5053528;28;20443;-77
2022/06/22 00:06:29;;;;;;;18.42;11.30;;;15.90;99.90;;;;;;5053570;28;20055;-77
2022/06/22 00:08:54;;;;;;;18.93;12.00;;;15.90;99.90;;;;;;5072400;28;20016;-77
2022/06/22 00:11:21;;;;;;;19.42;11.73;;;15.80;99.90;;;;;;5072683;28;20075;-76
2022/06/22 00:13:50;;;;;;;23.17;12.73;;;15.80;99.90;;;;;;5072641;28;20021;-77
2022/06/22 00:16:34;;;;;;;17.85;12.35;;;15.80;99.90;;;;;;5072876;28;20025;-76
2022/06/22 00:19:00;;;;;;;20.42;12.43;;;15.70;99.90;;;;;;5073336;28;20472;-76
2022/06/22 00:21:40;;;;;;;17.63;12.63;;;15.70;99.90;;;;;;5073221;28;20040;-77
2022/06/22 00:24:24;;;;;;;18.90;12.85;;;15.70;99.90;;;;;;5073321;28;20111;-76
2022/06/22 00:26:54;;;;;;;21.38;12.63;;;15.60;99.90;;;;;;5072041;28;20439;-76
2022/06/22 00:29:26;;;;;;;18.08;12.93;;;15.60;99.90;;;;;;5057912;28;20029;-76
2022/06/22 00:31:51;;;;;;;23.70;13.20;;;15.60;99.90;;;;;;5068875;28;20031;-76
2022/06/22 00:34:23;;;;;;;20.77;13.60;;;15.50;99.90;;;;;;5071059;28;20111;-76
2022/06/22 00:37:00;;;;;;;20.90;13.50;;;15.50;99.90;;;;;;5071466;28;20032;-76
2022/06/22 00:39:28;;;;;;;19.55;13.60;;;15.50;99.90;;;;;;5071303;28;20052;-77
2022/06/22 00:42:14;;;;;;;24.80;15.45;;;15.40;99.90;;;;;;5052700;28;20669;-76
2022/06/22 00:44:52;;;;;;;22.48;15.27;;;15.40;99.90;;;;;;5053975;28;20454;-77
2022/06/22 00:47:23;;;;;;;25.23;15.18;;;15.40;99.90;;;;;;5051535;28;20040;-76
2022/06/22 00:49:49;;;;;;;22.67;15.20;;;15.40;99.90;;;;;;5066718;28;20037;-76
2022/06/22 00:52:26;;;;;;;25.38;15.88;;;15.30;99.90;;;;;;5070609;28;20028;-76
2022/06/22 00:54:53;;;;;;;23.08;15.65;;;15.30;99.90;;;;;;5073826;28;20024;-76
2022/06/22 00:57:24;;;;;;;22.42;15.93;;;15.30;99.90;;;;;;5073717;28;20151;-77
2022/06/22 01:00:05;;;;;;;24.52;16.20;;;15.20;99.90;;;;;;5055049;28;20105;-76
2022/06/22 01:02:31;;;;;;;25.25;16.58;;;15.30;99.90;;;;;;5073885;28;20020;-76
2022/06/22 01:05:06;;;;;;;25.60;15.15;;;15.20;99.90;;;;;;5073209;28;20476;-76
2022/06/22 01:07:57;;;;;;;23.60;15.38;;;15.20;99.90;;;;;;5073943;28;20036;-76
2022/06/22 01:10:32;;;;;;;27.35;15.30;;;15.10;99.90;;;;;;5069510;28;20029;-77
2022/06/22 01:13:03;;;;;;;25.58;15.50;;;15.10;99.90;;;;;;5065596;28;20498;-76
2022/06/22 01:15:36;;;;;;;20.67;13.93;;;15.10;99.90;;;;;;5070887;28;20159;-76
2022/06/22 01:18:19;;;;;;;24.10;15.55;;;15.00;99.90;;;;;;5073857;28;20025;-76
2022/06/22 01:20:49;;;;;;;22.48;15.38;;;15.00;99.90;;;;;;5072883;28;20055;-77
2022/06/22 01:23:21;;;;;;;24.38;15.00;;;14.90;99.90;;;;;;5073033;28;20028;-76
2022/06/22 01:25:55;;;;;;;24.67;15.27;;;14.90;99.90;;;;;;5072050;28;20409;-77
2022/06/22 01:28:22;;;;;;;24.88;14.93;;;14.90;99.90;;;;;;5073655;28;20050;-77
2022/06/22 01:30:55;;;;;;;23.27;15.52;;;14.90;99.90;;;;;;5073317;28;20398;-77
2022/06/22 01:33:36;;;;;;;20.50;14.00;;;14.90;99.90;;;;;;5074053;28;20470;-76
2022/06/22 01:36:26;;;;;;;21.77;15.63;;;14.80;99.90;;;;;;5067426;28;20388;-77
2022/06/22 01:38:53;;;;;;;20.88;13.98;;;14.80;99.90;;;;;;5071842;28;20435;-76
2022/06/22 01:41:40;;;;;;;23.70;13.85;;;14.80;99.90;;;;;;5073250;28;20416;-76
2022/06/22 01:44:15;;;;;;;21.52;14.73;;;14.80;99.90;;;;;;5072071;28;20110;-76
2022/06/22 01:46:40;;;;;;;21.20;14.05;;;14.70;99.90;;;;;;5052629;28;20020;-76
2022/06/22 01:49:35;;;;;;;19.05;14.02;;;14.70;99.90;;;;;;5072636;28;20070;-77
2022/06/22 01:52:24;;;;;;;23.10;14.38;;;14.70;99.90;;;;;;5056797;28;20214;-76
2022/06/22 01:54:55;;;;;;;21.17;14.18;;;14.70;99.90;;;;;;5052452;28;20029;-76
2022/06/22 01:57:43;;;;;;;23.33;14.13;;;14.60;99.90;;;;;;5065432;28;20036;-77
2022/06/22 02:00:17;;;;;;;20.40;13.88;;;14.60;99.90;;;;;;5048938;28;20031;-76
2022/06/22 02:03:00;;;;;;;21.08;14.23;;;14.60;99.90;;;;;;5054600;28;20120;-76
2022/06/22 02:05:38;;;;;;;22.10;14.73;;;14.60;99.90;;;;;;5069798;28;20020;-76
2022/06/22 02:08:26;;;;;;;22.23;14.13;;;14.50;99.90;;;;;;5071930;28;20034;-76
2022/06/22 02:10:59;;;;;;;23.85;14.63;;;14.50;99.90;;;;;;5060432;28;20571;-77
2022/06/22 02:13:40;;;;;;;20.38;13.82;;;14.50;99.90;;;;;;5053648;28;20028;-76
2022/06/22 02:16:31;;;;;;;20.58;13.98;;;14.40;99.90;;;;;;5071992;28;20024;-76
2022/06/22 02:18:57;;;;;;;23.30;14.10;;;14.40;99.90;;;;;;5037236;28;20040;-76
2022/06/22 02:21:26;;;;;;;22.38;13.70;;;14.40;99.90;;;;;;5073034;28;20020;-75
2022/06/22 02:24:00;;;;;;;22.58;14.88;;;14.40;99.90;;;;;;5071885;28;20506;-76
2022/06/22 02:26:37;;;;;;;25.20;16.10;;;14.30;99.90;;;;;;5071258;28;20067;-76
2022/06/22 02:29:03;;;;;;;20.77;15.20;;;14.30;99.90;;;;;;5058327;28;20032;-76
2022/06/22 02:31:29;;;;;;;22.40;15.35;;;14.30;99.90;;;;;;5068350;28;20071;-76
2022/06/22 02:33:57;;;;;;;30.42;17.42;;;14.20;99.90;;;;;;5071355;28;20025;-76
2022/06/22 02:36:27;;;;;;;27.08;18.48;;;14.10;99.90;;;;;;5071777;28;20040;-75
2022/06/22 02:38:55;;;;;;;28.58;18.90;;;14.00;99.90;;;;;;5071273;28;20114;-76
2022/06/22 02:44:32;;;;;;;27.20;19.35;;;14.00;99.90;;;;;;5071660;28;20044;-76
2022/06/22 02:47:19;;;;;;;29.40;19.38;;;14.00;99.90;;;;;;5072017;28;20087;-76
2022/06/22 02:49:52;;;;;;;27.02;19.90;;;14.00;99.90;;;;;;5068040;28;20104;-76
2022/06/22 02:52:19;;;;;;;34.20;21.33;;;14.00;99.90;;;;;;5071786;28;20059;-76
2022/06/22 02:54:54;;;;;;;33.63;21.52;;;14.00;99.90;;;;;;5060728;28;20047;-76
2022/06/22 02:57:25;;;;;;;34.20;22.13;;;14.00;99.90;;;;;;5071894;28;20032;-77
2022/06/22 02:59:51;;;;;;;38.92;22.60;;;13.90;99.90;;;;;;5071620;28;20374;-77
2022/06/22 03:02:19;;;;;;;34.80;21.50;;;14.00;99.90;;;;;;5067831;28;20101;-76
2022/06/22 03:04:45;;;;;;;36.38;23.65;;;14.00;99.90;;;;;;5059640;28;20488;-76
2022/06/22 03:07:11;;;;;;;36.55;22.27;;;14.00;99.90;;;;;;5071186;28;20033;-76
2022/06/22 03:09:38;;;;;;;37.65;23.60;;;13.90;99.90;;;;;;5059559;28;20174;-76
2022/06/22 03:12:04;;;;;;;35.58;22.27;;;13.90;99.90;;;;;;5052395;28;20578;-76
2022/06/22 03:14:36;;;;;;;39.60;23.17;;;13.90;99.90;;;;;;5045675;28;20063;-76
2022/06/22 03:17:10;;;;;;;35.70;22.58;;;13.90;99.90;;;;;;5067070;28;20330;-76
2022/06/22 03:19:35;;;;;;;40.80;23.13;;;13.90;99.90;;;;;;5071689;28;20401;-76
2022/06/22 03:22:01;;;;;;;40.95;22.13;;;13.90;99.90;;;;;;5070997;28;20025;-76
2022/06/22 03:25:00;;;;;;;36.88;23.00;;;13.90;99.90;;;;;;5071381;28;20032;-76
2022/06/22 03:27:30;;;;;;;36.40;21.73;;;13.90;99.90;;;;;;5067741;28;20136;-77
2022/06/22 03:30:00;;;;;;;38.88;23.35;;;13.90;99.90;;;;;;5070732;28;20484;-77
2022/06/22 03:32:34;;;;;;;37.70;23.20;;;13.90;99.90;;;;;;5069481;28;20020;-77
2022/06/22 03:35:11;;;;;;;37.35;23.33;;;13.90;99.90;;;;;;5058230;28;20539;-77
2022/06/22 03:37:51;;;;;;;36.83;22.58;;;13.90;99.90;;;;;;5062782;28;20048;-77
2022/06/22 03:40:27;;;;;;;32.47;22.40;;;13.90;99.90;;;;;;5071290;28;20097;-77
2022/06/22 03:42:59;;;;;;;37.00;23.13;;;14.00;99.90;;;;;;5071416;28;20036;-77
2022/06/22 03:45:36;;;;;;;34.55;21.65;;;13.90;99.90;;;;;;5071009;28;20062;-77
2022/06/22 03:48:18;;;;;;;42.25;22.25;;;14.00;99.90;;;;;;5071556;28;20486;-77
2022/06/22 03:50:55;;;;;;;31.83;21.65;;;13.90;99.90;;;;;;5057087;28;20021;-77
2022/06/22 03:53:50;;;;;;;35.33;20.65;;;13.90;99.90;;;;;;5071156;28;20107;-77
2022/06/22 03:56:19;;;;;;;34.08;20.83;;;13.90;99.90;;;;;;5044073;28;20037;-77
2022/06/22 03:58:47;;;;;;;33.22;21.48;;;13.90;99.90;;;;;;5063669;28;20092;-77
2022/06/22 04:01:14;;;;;;;31.50;20.52;;;13.90;99.90;;;;;;5056737;28;20116;-76
2022/06/22 04:03:41;;;;;;;34.42;21.15;;;13.90;99.90;;;;;;5071093;28;20116;-77
2022/06/22 04:06:07;;;;;;;36.22;20.05;;;13.90;99.90;;;;;;5070479;28;20090;-77
2022/06/22 04:08:37;;;;;;;31.80;21.80;;;13.90;99.90;;;;;;5071093;28;20029;-77
2022/06/22 04:11:31;;;;;;;34.92;21.23;;;13.90;99.90;;;;;;5070406;28;20024;-77
2022/06/22 04:14:15;;;;;;;33.97;21.25;;;13.90;99.90;;;;;;5070886;28;20063;-77
2022/06/22 04:16:47;;;;;;;28.55;19.90;;;13.90;99.90;;;;;;5061876;28;20021;-77
2022/06/22 04:19:26;;;;;;;35.63;23.08;;;13.80;99.90;;;;;;5068877;28;20035;-77
2022/06/22 04:22:17;;;;;;;35.53;20.73;;;13.80;99.90;;;;;;5069882;28;20066;-77
2022/06/22 04:24:49;;;;;;;41.70;22.40;;;13.70;99.90;;;;;;5047287;28;20646;-77
2022/06/22 04:27:27;;;;;;;36.97;23.15;;;13.70;99.90;;;;;;5068512;28;20412;-77
2022/06/22 04:30:05;;;;;;;33.47;21.85;;;13.70;99.90;;;;;;5049166;28;20060;-77
2022/06/22 04:32:38;;;;;;;38.45;22.15;;;13.80;99.90;;;;;;5066846;28;20086;-78
2022/06/22 04:35:28;;;;;;;36.50;22.55;;;13.80;99.90;;;;;;5051572;28;20039;-74
2022/06/22 04:38:04;;;;;;;35.80;22.58;;;13.80;99.90;;;;;;5069818;28;20408;-75
2022/06/22 04:40:47;;;;;;;36.50;22.33;;;13.90;99.90;;;;;;5060774;28;20254;-75
2022/06/22 04:43:14;;;;;;;39.22;22.58;;;13.90;99.90;;;;;;5058160;28;20100;-74
2022/06/22 04:45:43;;;;;;;37.60;23.33;;;13.90;99.90;;;;;;5053377;28;20039;-75
2022/06/22 04:48:13;;;;;;;40.08;22.67;;;13.90;99.90;;;;;;5061321;28;20365;-79
2022/06/22 04:50:42;;;;;;;41.88;23.13;;;13.90;99.90;;;;;;5048389;28;20017;-77
2022/06/22 04:53:35;;;;;;;42.40;22.98;;;13.90;99.90;;;;;;5040081;28;20437;-77
2022/06/22 04:56:09;;;;;;;35.05;21.02;;;14.00;99.90;;;;;;5049276;28;20063;-77
2022/06/22 04:58:51;;;;;;;40.67;21.05;;;14.00;99.90;;;;;;5067544;28;20107;-80
2022/06/22 05:01:24;;;;;;;38.97;22.40;;;14.10;99.90;;;;;;5041047;28;20089;-76
2022/06/22 05:03:54;;;;;;;34.05;21.42;;;14.10;99.90;;;;;;5051707;28;20052;-77
2022/06/22 05:06:45;;;;;;;37.92;22.02;;;14.10;99.90;;;;;;5062911;28;20029;-76
2022/06/22 05:09:26;;;;;;;34.13;22.63;;;14.10;99.90;;;;;;5062018;28;20074;-77
2022/06/22 05:11:51;;;;;;;32.65;20.60;;;14.20;99.90;;;;;;5045811;28;20025;-77
2022/06/22 05:14:24;;;;;;;35.30;21.13;;;14.30;99.90;;;;;;5059437;28;20029;-78
2022/06/22 05:16:58;;;;;;;33.20;20.48;;;14.30;99.90;;;;;;5063114;28;20017;-77
2022/06/22 05:19:31;;;;;;;32.70;20.63;;;14.40;99.90;;;;;;5062755;28;20029;-77
2022/06/22 05:21:58;;;;;;;29.90;19.75;;;14.40;99.90;;;;;;5067927;28;20033;-77
2022/06/22 05:24:28;;;;;;;33.83;19.83;;;14.50;99.90;;;;;;5065728;28;20063;-78
2022/06/22 05:26:58;;;;;;;41.83;21.48;;;14.50;99.90;;;;;;5064009;28;20519;-78
2022/06/22 05:29:37;;;;;;;35.05;21.80;;;14.60;99.90;;;;;;5047273;28;20020;-78
2022/06/22 05:32:08;;;;;;;34.65;20.38;;;14.70;99.90;;;;;;5056440;28;20066;-79
2022/06/22 05:34:37;;;;;;;31.48;19.15;;;14.70;99.90;;;;;;5058505;28;20487;-78
2022/06/22 05:37:11;;;;;;;32.28;19.45;;;14.80;99.90;;;;;;5054622;28;20416;-78
2022/06/22 05:39:37;;;;;;;35.20;20.35;;;14.80;99.90;;;;;;5056783;28;20029;-78
2022/06/22 05:42:03;;;;;;;33.28;19.92;;;14.90;99.90;;;;;;5055639;28;20032;-78
2022/06/22 05:44:29;;;;;;;34.50;19.65;;;14.90;99.90;;;;;;5064436;28;20024;-78
2022/06/22 05:46:59;;;;;;;33.15;19.73;;;15.00;99.90;;;;;;5067587;28;20039;-78
2022/06/22 05:49:31;;;;;;;33.33;18.65;;;15.00;99.90;;;;;;5068858;28;20032;-77
2022/06/22 05:52:43;;;;;;;29.30;18.10;;;15.10;99.90;;;;;;5060069;28;20271;-78
2022/06/22 05:55:18;;;;;;;29.00;18.02;;;15.20;99.90;;;;;;5042482;28;20028;-78
2022/06/22 05:57:52;;;;;;;33.65;17.08;;;15.20;99.90;;;;;;5071338;28;20036;-78
2022/06/22 06:00:44;;;;;;;26.67;15.60;;;15.30;99.90;;;;;;5068530;28;20032;-78
2022/06/22 06:03:31;;;;;;;27.33;14.82;;;15.40;99.90;;;;;;5049159;28;20033;-77
2022/06/22 06:06:20;;;;;;;24.25;14.70;;;15.50;99.90;;;;;;5060523;28;20116;-77
2022/06/22 06:08:53;;;;;;;24.27;13.85;;;15.50;99.90;;;;;;5060727;28;20025;-77
2022/06/22 06:11:24;;;;;;;20.02;13.55;;;15.60;99.90;;;;;;5072388;28;20028;-77
2022/06/22 06:13:58;;;;;;;21.58;12.73;;;15.70;99.90;;;;;;5072368;28;20025;-77
2022/06/22 06:16:27;;;;;;;17.80;11.48;;;15.80;99.90;;;;;;5054267;28;20293;-77
2022/06/22 06:18:57;;;;;;;19.58;11.95;;;15.90;99.90;;;;;;5059330;28;20096;-77
2022/06/22 06:21:28;;;;;;;18.27;10.70;;;16.00;99.90;;;;;;5065353;28;20037;-77
2022/06/22 06:23:57;;;;;;;14.73;11.05;;;16.10;99.90;;;;;;5072047;28;20035;-78
2022/06/22 06:29:51;;;;;;;17.63;10.65;;;16.20;99.90;;;;;;5054520;28;20684;-77
2022/06/22 06:32:39;;;;;;;19.38;10.35;;;16.30;99.90;;;;;;5065004;28;20051;-77
2022/06/22 06:35:44;;;;;;;21.40;9.82;;;16.50;99.90;;;;;;5054854;28;20225;-78
2022/06/22 06:38:32;;;;;;;14.43;9.63;;;16.60;99.90;;;;;;5064558;28;20113;-77
2022/06/22 06:40:57;;;;;;;14.40;8.48;;;16.70;99.90;;;;;;5069890;28;20380;-77
2022/06/22 06:43:33;;;;;;;16.77;9.30;;;16.80;99.90;;;;;;5071743;28;20029;-76
2022/06/22 06:46:00;;;;;;;15.98;8.30;;;16.90;99.90;;;;;;5071330;28;20066;-77
2022/06/22 06:48:28;;;;;;;12.82;7.45;;;17.00;99.90;;;;;;5071743;28;20094;-77
2022/06/22 06:51:01;;;;;;;11.52;6.80;;;17.10;99.90;;;;;;5070997;28;20024;-78
2022/06/22 06:53:29;;;;;;;10.95;6.75;;;17.20;99.90;;;;;;5071463;28;20032;-77
2022/06/22 06:56:01;;;;;;;12.45;6.85;;;17.30;99.90;;;;;;5069828;28;20036;-77
2022/06/22 06:58:41;;;;;;;13.30;7.00;;;17.50;99.90;;;;;;5057942;28;20024;-78
2022/06/22 07:01:18;;;;;;;13.90;7.05;;;17.60;99.90;;;;;;5064504;28;20025;-77
2022/06/22 07:03:44;;;;;;;11.30;6.80;;;17.80;99.90;;;;;;5068799;28;20299;-77
2022/06/22 07:06:10;;;;;;;12.75;7.55;;;17.90;99.90;;;;;;5066518;28;20082;-76
2022/06/22 07:08:39;;;;;;;14.63;7.65;;;18.00;99.90;;;;;;5064095;28;20024;-78
2022/06/22 07:11:32;;;;;;;13.27;7.30;;;18.20;99.90;;;;;;5059285;28;20128;-78
2022/06/22 07:14:15;;;;;;;14.88;7.18;;;18.30;99.90;;;;;;5067476;28;20112;-77
2022/06/22 07:16:41;;;;;;;12.18;7.05;;;18.50;99.90;;;;;;5036308;28;20091;-77
2022/06/22 07:19:31;;;;;;;14.23;7.60;;;18.60;99.90;;;;;;5061286;28;20025;-76
2022/06/22 07:22:07;;;;;;;13.73;8.13;;;18.80;99.90;;;;;;5068925;28;20502;-77
2022/06/22 07:24:41;;;;;;;16.60;7.65;;;19.00;99.90;;;;;;5062203;28;20024;-77
2022/06/22 07:27:13;;;;;;;14.00;7.82;;;19.10;99.90;;;;;;5070698;28;20072;-77
2022/06/22 07:30:00;;;;;;;13.40;7.05;;;19.30;99.90;;;;;;5052220;28;20435;-78
2022/06/22 07:32:33;;;;;;;12.52;6.95;;;19.50;99.90;;;;;;5067667;28;20066;-77
2022/06/22 07:35:15;;;;;;;12.73;6.45;;;19.70;99.90;;;;;;5070966;28;20016;-77
2022/06/22 07:37:55;;;;;;;12.27;7.07;;;19.80;99.90;;;;;;5058024;28;20112;-77
2022/06/22 07:40:28;;;;;;;11.98;6.70;;;19.90;99.90;;;;;;5069451;28;20024;-77
2022/06/22 07:42:57;;;;;;;12.15;5.85;;;20.00;99.90;;;;;;5058953;28;20039;-76
2022/06/22 07:45:26;;;;;;;11.07;6.25;;;20.10;99.90;;;;;;5069073;28;20028;-77
2022/06/22 07:48:01;;;;;;;8.75;5.40;;;20.30;99.90;;;;;;5055532;28;20016;-77
2022/06/22 07:50:54;;;;;;;11.15;6.05;;;20.40;99.90;;;;;;5070233;28;20474;-77
2022/06/22 07:53:44;;;;;;;11.50;6.28;;;20.60;99.90;;;;;;5062475;28;20037;-77
2022/06/22 07:56:23;;;;;;;16.50;6.10;;;20.70;99.60;;;;;;5070004;28;20036;-77
2022/06/22 07:59:00;;;;;;;12.23;6.18;;;20.80;99.70;;;;;;5070134;28;20472;-77
2022/06/22 08:01:37;;;;;;;11.13;7.05;;;21.00;98.80;;;;;;5069988;28;20543;-77
2022/06/22 08:04:15;;;;;;;11.07;6.60;;;21.10;97.40;;;;;;5051650;28;20380;-77
2022/06/22 08:07:09;;;;;;;11.32;6.60;;;21.20;96.90;;;;;;5069343;28;20507;-77
2022/06/22 08:09:49;;;;;;;11.95;6.40;;;21.30;95.60;;;;;;5070227;28;20032;-77
2022/06/22 08:12:18;;;;;;;13.20;5.28;;;21.40;95.10;;;;;;5070401;28;20058;-77
2022/06/22 08:14:46;;;;;;;11.00;4.97;;;21.50;95.40;;;;;;5069974;28;20029;-76
2022/06/22 08:17:34;;;;;;;8.80;5.28;;;21.70;94.00;;;;;;5063483;28;20035;-78
2022/06/22 08:19:59;;;;;;;10.18;5.22;;;21.80;92.60;;;;;;5065628;28;20415;-76
2022/06/22 08:22:25;;;;;;;10.68;4.68;;;21.80;92.10;;;;;;5062314;28;20032;-77
2022/06/22 08:24:55;;;;;;;9.70;4.78;;;21.90;91.60;;;;;;5063431;28;20037;-77
2022/06/22 08:27:23;;;;;;;8.27;5.00;;;22.10;90.60;;;;;;5064216;28;20063;-76
2022/06/22 08:29:51;;;;;;;8.38;4.38;;;22.20;87.40;;;;;;5068247;28;20123;-77
2022/06/22 08:32:22;;;;;;;6.22;3.63;;;22.20;86.30;;;;;;5070470;28;20090;-77
2022/06/22 08:34:52;;;;;;;11.50;4.05;;;22.30;84.70;;;;;;5070619;28;20077;-76
2022/06/22 08:37:34;;;;;;;8.57;4.13;;;22.40;84.00;;;;;;5069647;28;20473;-76
2022/06/22 08:40:21;;;;;;;8.13;3.58;;;22.60;83.10;;;;;;5069406;28;20029;-77
2022/06/22 08:43:15;;;;;;;7.47;3.60;;;22.90;79.90;;;;;;5056923;28;20021;-77
2022/06/22 08:46:05;;;;;;;10.77;4.10;;;23.00;79.70;;;;;;5069895;28;20389;-77
2022/06/22 08:48:44;;;;;;;9.88;4.32;;;23.20;78.10;;;;;;5070038;28;20048;-77
2022/06/22 08:51:29;;;;;;;7.72;3.97;;;23.30;75.20;;;;;;5069840;28;20032;-77
2022/06/22 08:53:58;;;;;;;6.63;3.15;;;23.50;74.20;;;;;;5070155;28;20422;-76
2022/06/22 08:56:40;;;;;;;6.65;3.55;;;23.50;75.10;;;;;;5060644;28;20024;-76
2022/06/22 08:59:24;;;;;;;7.25;3.42;;;23.50;70.40;;;;;;5051889;28;20120;-76
2022/06/22 09:02:22;;;;;;;6.95;3.80;;;23.60;71.30;;;;;;5069516;28;20037;-76
2022/06/22 09:05:06;;;;;;;5.78;3.30;;;23.70;69.90;;;;;;5070663;28;20031;-79
2022/06/22 09:07:57;;;;;;;7.68;4.03;;;23.80;69.50;;;;;;5072669;28;20024;-81
2022/06/22 09:10:44;;;;;;;7.38;3.80;;;24.10;67.90;;;;;;5061928;28;20067;-80
2022/06/22 09:13:26;;;;;;;5.70;2.65;;;24.20;66.50;;;;;;5063885;28;20051;-81
2022/06/22 09:16:03;;;;;;;8.27;3.42;;;24.40;64.50;;;;;;5057162;28;20092;-81
2022/06/22 09:18:35;;;;;;;6.75;3.28;;;24.50;64.00;;;;;;5069163;28;20024;-80
2022/06/22 09:21:31;;;;;;;9.60;4.35;;;24.60;62.60;;;;;;5072582;28;20024;-80
2022/06/22 09:24:09;;;;;;;11.15;5.50;;;24.70;62.00;;;;;;5072320;28;20030;-80
2022/06/22 09:26:54;;;;;;;10.35;4.40;;;24.60;61.40;;;;;;5074463;28;20036;-80
2022/06/22 09:29:26;;;;;;;8.07;3.90;;;24.50;61.90;;;;;;5072065;28;20028;-80
2022/06/22 09:32:10;;;;;;;6.45;4.18;;;24.30;59.90;;;;;;5072995;28;20024;-81
2022/06/22 09:35:00;;;;;;;9.48;5.15;;;24.30;57.50;;;;;;5057367;28;20485;-81
2022/06/22 09:37:36;;;;;;;8.45;5.60;;;24.20;58.80;;;;;;5065518;28;20523;-81
2022/06/22 09:40:41;;;;;;;9.23;5.07;;;24.20;59.60;;;;;;5056653;28;20017;-81
2022/06/22 09:43:29;;;;;;;9.05;5.00;;;24.40;60.00;;;;;;5044387;28;20532;-82
2022/06/22 09:46:09;;;;;;;7.82;4.25;;;24.40;58.90;;;;;;5062759;28;20031;-81
2022/06/22 09:48:47;;;;;;;12.10;5.43;;;24.30;57.00;;;;;;5065371;28;20052;-82
2022/06/22 09:51:43;;;;;;;8.95;5.85;;;24.40;57.50;;;;;;5064563;28;20377;-82
2022/06/22 09:57:29;;;;;;;9.98;5.53;;;24.50;56.40;;;;;;5063921;28;20511;-80
2022/06/22 10:00:03;;;;;;;9.25;5.53;;;24.60;56.30;;;;;;5055909;28;20033;-81
2022/06/22 10:02:48;;;;;;;12.30;6.40;;;24.60;56.70;;;;;;5059745;28;20031;-81
2022/06/22 10:05:44;;;;;;;10.68;6.28;;;24.70;57.00;;;;;;5066252;28;20267;-81
2022/06/22 10:08:32;;;;;;;9.13;5.65;;;24.80;56.70;;;;;;5069304;28;20028;-81
2022/06/22 10:11:21;;;;;;;10.15;5.50;;;24.90;56.30;;;;;;5067517;28;20099;-81
2022/06/22 10:13:53;;;;;;;12.13;6.20;;;24.90;56.30;;;;;;5058432;28;20072;-80
2022/06/22 10:16:45;;;;;;;9.48;5.25;;;25.00;55.90;;;;;;5055249;28;20025;-80
2022/06/22 10:19:36;;;;;;;12.45;5.28;;;25.10;55.60;;;;;;5065877;28;20548;-81
2022/06/22 10:22:13;;;;;;;9.93;5.35;;;25.10;55.10;;;;;;5066158;28;20025;-79
2022/06/22 10:25:02;;;;;;;11.63;5.65;;;25.20;55.00;;;;;;5056289;28;20032;-79
2022/06/22 10:27:45;;;;;;;6.97;4.05;;;25.20;55.50;;;;;;5062834;28;20435;-79
2022/06/22 10:30:35;;;;;;;10.02;4.05;;;25.30;54.80;;;;;;5058995;28;20029;-79
2022/06/22 10:33:20;;;;;;;7.88;4.28;;;25.60;53.80;;;;;;5067468;28;20036;-77
2022/06/22 10:36:10;;;;;;;6.95;4.53;;;25.80;53.80;;;;;;5058830;28;20036;-77
2022/06/22 10:39:01;;;;;;;6.32;3.60;;;25.90;52.60;;;;;;5064272;28;20362;-77
2022/06/22 10:45:10;;;;;;;8.20;4.13;;;26.40;52.50;;;;;;5062766;28;20067;-77
2022/06/22 10:48:00;;;;;;;7.90;4.25;;;26.50;51.70;;;;;;5043616;28;20032;-77
2022/06/22 10:50:47;;;;;;;7.13;3.55;;;26.50;51.30;;;;;;5062666;28;20081;-77
2022/06/22 10:53:49;;;;;;;9.00;3.90;;;26.70;51.20;;;;;;5065206;28;20372;-77
2022/06/22 10:56:38;;;;;;;7.32;4.35;;;26.80;51.10;;;;;;5066244;28;20047;-77
2022/06/22 10:59:21;;;;;;;7.20;3.95;;;26.90;50.80;;;;;;5058596;28;20032;-77
2022/06/22 11:01:59;;;;;;;10.30;4.10;;;27.00;50.30;;;;;;5069038;28;20500;-77
2022/06/22 11:04:25;;;;;;;10.07;4.05;;;27.00;50.30;;;;;;5066987;28;20078;-76
2022/06/22 11:07:15;;;;;;;7.95;3.92;;;27.00;50.60;;;;;;5067072;28;20025;-76
2022/06/22 11:09:50;;;;;;;7.20;4.00;;;27.00;50.60;;;;;;5066056;28;20036;-76
2022/06/22 11:12:31;;;;;;;8.40;4.05;;;27.10;50.50;;;;;;5060202;28;20384;-77
2022/06/22 11:15:05;;;;;;;6.93;4.13;;;27.10;50.30;;;;;;5070863;28;20031;-76
2022/06/22 11:17:34;;;;;;;9.77;4.15;;;27.10;49.80;;;;;;5060414;28;20021;-76
2022/06/22 11:20:40;;;;;;;7.50;3.95;;;27.10;49.40;;;;;;5048726;28;20039;-77
2022/06/22 11:23:11;;;;;;;8.60;3.65;;;27.00;49.30;;;;;;4969209;28;20481;-76
2022/06/22 11:31:45;;;;;;;6.93;3.50;;;27.20;48.90;;;;;;4967553;28;20034;-77
2022/06/22 11:34:37;;;;;;;6.15;4.20;;;27.30;49.30;;;;;;4969709;28;20113;-76
2022/06/22 11:37:08;;;;;;;6.30;3.63;;;27.30;49.30;;;;;;4968611;28;21598;-77
2022/06/22 11:39:50;;;;;;;7.80;3.80;;;27.20;49.60;;;;;;4963799;28;20039;-77
2022/06/22 11:42:40;;;;;;;9.13;5.18;;;27.30;49.90;;;;;;4969761;28;20043;-79
2022/06/22 11:45:51;;;;;;;10.80;4.78;;;27.40;50.20;;;;;;4969268;28;20480;-78
2022/06/22 11:48:32;;;;;;;7.72;4.93;;;27.40;50.30;;;;;;4966106;28;20209;-77
2022/06/22 11:51:13;;;;;;;7.18;4.30;;;27.40;50.20;;;;;;4964920;28;20638;-78
2022/06/22 11:54:10;;;;;;;15.45;5.60;;;27.50;50.40;;;;;;4966720;28;20038;-79
2022/06/22 11:56:56;;;;;;;10.27;4.18;;;27.60;50.30;;;;;;4967481;28;20558;-77
2022/06/22 11:59:49;;;;;;;8.30;3.10;;;27.80;50.80;;;;;;4991080;28;20058;-78
2022/06/22 12:02:45;;;;;;;6.47;3.40;;;28.10;50.70;;;;;;5057137;28;20502;-78
2022/06/22 12:05:38;;;;;;;7.03;3.50;;;28.20;50.00;;;;;;5061210;28;20028;-78
2022/06/22 12:08:16;;;;;;;6.50;3.30;;;28.40;50.80;;;;;;5057293;28;20052;-78
2022/06/22 12:11:06;;;;;;;7.15;3.50;;;28.50;49.80;;;;;;5056700;28;20042;-79
2022/06/22 12:13:40;;;;;;;5.90;2.80;;;28.40;49.00;;;;;;5057776;28;20021;-78
2022/06/22 12:16:32;;;;;;;11.15;3.85;;;28.40;49.10;;;;;;5056340;28;20071;-78
2022/06/22 12:19:22;;;;;;;4.88;3.10;;;28.50;48.90;;;;;;5055675;28;20484;-78
2022/06/22 12:22:08;;;;;;;6.45;3.10;;;28.70;49.20;;;;;;5057427;28;20365;-78
2022/06/22 12:24:48;;;;;;;5.05;2.20;;;28.90;48.20;;;;;;5055838;28;20066;-79
2022/06/22 12:27:36;;;;;;;5.28;2.33;;;28.90;46.80;;;;;;5057733;28;20049;-80
2022/06/22 12:30:29;;;;;;;3.20;1.77;;;28.70;45.60;;;;;;5058116;28;20025;-79
2022/06/22 12:33:13;;;;;;;4.47;2.00;;;28.70;45.70;;;;;;5039015;28;20017;-77
2022/06/22 12:35:57;;;;;;;4.07;1.60;;;28.80;45.30;;;;;;5061795;28;20028;-79
2022/06/22 12:38:37;;;;;;;4.85;1.80;;;28.90;45.10;;;;;;5053122;28;20108;-79
2022/06/22 12:41:23;;;;;;;3.15;1.40;;;28.90;44.70;;;;;;5054626;28;20040;-79
2022/06/22 12:43:54;;;;;;;2.53;1.35;;;29.00;44.30;;;;;;5057956;28;20035;-77
2022/06/22 12:46:25;;;;;;;3.10;1.10;;;29.10;43.30;;;;;;5060607;28;20487;-79
2022/06/22 12:48:54;;;;;;;2.63;1.30;;;29.20;43.50;;;;;;5063571;28;20054;-78
2022/06/22 12:51:29;;;;;;;3.00;1.30;;;29.30;43.20;;;;;;5069696;28;20020;-78
2022/06/22 12:54:13;;;;;;;2.40;1.00;;;29.40;42.30;;;;;;5068151;28;20064;-79
2022/06/22 12:56:51;;;;;;;2.78;0.90;;;29.40;40.90;;;;;;5065701;28;20028;-77
2022/06/22 12:59:17;;;;;;;2.58;1.00;;;29.50;40.30;;;;;;5064615;28;20020;-79
2022/06/22 13:01:43;;;;;;;2.55;1.15;;;29.40;39.50;;;;;;5065473;28;20495;-79
2022/06/22 13:04:19;;;;;;;2.05;0.70;;;29.40;40.20;;;;;;5065428;28;20024;-79
2022/06/22 13:06:51;;;;;;;1.55;0.70;;;29.50;39.00;;;;;;5076031;28;20025;-79
2022/06/22 13:09:18;;;;;;;3.20;0.80;;;29.50;39.00;;;;;;5065044;28;20369;-77
2022/06/22 13:11:44;;;;;;;1.70;0.63;;;29.50;37.80;;;;;;5053141;28;20022;-77
2022/06/22 13:14:18;;;;;;;2.10;0.85;;;29.50;38.10;;;;;;5062542;28;20421;-80
2022/06/22 13:17:13;;;;;;;1.93;0.70;;;29.50;37.70;;;;;;5069554;28;20090;-79
2022/06/22 13:20:06;;;;;;;2.73;0.70;;;29.50;38.20;;;;;;5069037;28;20029;-78
2022/06/22 13:22:57;;;;;;;3.65;0.60;;;29.70;36.30;;;;;;5066313;28;20037;-81
2022/06/22 13:25:39;;;;;;;2.22;0.60;;;29.70;35.70;;;;;;5076948;28;20024;-80
2022/06/22 13:28:36;;;;;;;1.67;0.65;;;29.70;35.60;;;;;;5077239;28;20110;-79
2022/06/22 13:31:17;;;;;;;1.52;0.70;;;29.80;35.80;;;;;;5064887;28;20515;-80
2022/06/22 13:33:49;;;;;;;2.25;0.57;;;29.80;35.90;;;;;;5075968;28;20107;-79
2022/06/22 13:36:51;;;;;;;1.65;0.57;;;29.80;35.30;;;;;;5076703;28;20024;-78
2022/06/22 13:39:42;;;;;;;2.70;0.80;;;29.80;35.90;;;;;;5067108;28;20020;-79
2022/06/22 13:42:08;;;;;;;0.85;0.60;;;29.90;34.60;;;;;;5055367;28;20043;-80
2022/06/22 13:45:19;;;;;;;1.00;0.57;;;29.80;34.70;;;;;;5076181;28;20024;-79
2022/06/22 13:48:03;;;;;;;1.67;0.60;;;29.80;34.30;;;;;;5076309;28;20085;-80
2022/06/22 13:51:08;;;;;;;0.50;0.50;;;29.80;34.00;;;;;;5077200;28;20032;-79